sensor_id;sensor_type;location;lat;lon;timestamp;pressure;altitude;pressure_sealevel;temperature;humidity
30744;BME280;17486;46.738;7.622;2023-11-22T00:00:02;95342.56;;;8.21;68.51
30744;BME280;17486;46.738;7.622;2023-11-22T00:02:28;95350.19;;;8.25;68.88
30744;BME280;17486;46.738;7.622;2023-11-22T00:04:54;95360.50;;;8.27;68.92
30744;BME280;17486;46.738;7.622;2023-11-22T00:07:20;95363.06;;;8.27;69.03
30744;BME280;17486;46.738;7.622;2023-11-22T00:09:46;95365.66;;;8.27;69.10
30744;BME280;17486;46.738;7.622;2023-11-22T00:12:12;95364.94;;;8.23;68.99
30744;BME280;17486;46.738;7.622;2023-11-22T00:14:38;95363.38;;;8.19;69.30
30744;BME280;17486;46.738;7.622;2023-11-22T00:17:04;95374.34;;;8.26;69.47
30744;BME280;17486;46.738;7.622;2023-11-22T00:19:30;95366.56;;;8.26;69.36
30744;BME280;17486;46.738;7.622;2023-11-22T00:21:56;95367.59;;;8.22;69.22
30744;BME280;17486;46.738;7.622;2023-11-22T00:24:21;95388.31;;;8.22;69.36
30744;BME280;17486;46.738;7.622;2023-11-22T00:26:47;95383.13;;;8.22;69.47
30744;BME280;17486;46.738;7.622;2023-11-22T00:29:12;95388.41;;;8.19;69.59
30744;BME280;17486;46.738;7.622;2023-11-22T00:31:37;95378.19;;;8.16;69.78
30744;BME280;17486;46.738;7.622;2023-11-22T00:34:03;95380.59;;;8.20;69.85
30744;BME280;17486;46.738;7.622;2023-11-22T00:36:28;95378.84;;;8.21;69.34
30744;BME280;17486;46.738;7.622;2023-11-22T00:38:54;95373.72;;;8.19;69.67
30744;BME280;17486;46.738;7.622;2023-11-22T00:41:19;95365.97;;;8.19;69.85
30744;BME280;17486;46.738;7.622;2023-11-22T00:43:46;95367.69;;;8.19;69.65
30744;BME280;17486;46.738;7.622;2023-11-22T00:46:11;95373.72;;;8.19;69.50
30744;BME280;17486;46.738;7.622;2023-11-22T00:48:36;95371.22;;;8.18;70.00
30744;BME280;17486;46.738;7.622;2023-11-22T00:51:03;95333.22;;;7.94;70.27
30744;BME280;17486;46.738;7.622;2023-11-22T00:53:36;95375.59;;;8.16;70.36
30744;BME280;17486;46.738;7.622;2023-11-22T00:56:03;95378.19;;;8.16;70.68
30744;BME280;17486;46.738;7.622;2023-11-22T00:58:30;95360.34;;;8.08;70.61
30744;BME280;17486;46.738;7.622;2023-11-22T01:00:55;95381.56;;;8.18;70.80
30744;BME280;17486;46.738;7.622;2023-11-22T01:03:21;95382.53;;;8.15;70.79
30744;BME280;17486;46.738;7.622;2023-11-22T01:05:46;95385.94;;;8.16;70.92
30744;BME280;17486;46.738;7.622;2023-11-22T01:08:12;95387.72;;;8.15;70.93
30744;BME280;17486;46.738;7.622;2023-11-22T01:10:38;95397.13;;;8.18;70.92
30744;BME280;17486;46.738;7.622;2023-11-22T01:13:04;95397.13;;;8.18;70.96
30744;BME280;17486;46.738;7.622;2023-11-22T01:15:29;95397.06;;;8.19;70.94
30744;BME280;17486;46.738;7.622;2023-11-22T01:17:54;95390.09;;;8.20;70.46
30744;BME280;17486;46.738;7.622;2023-11-22T01:20:20;95390.09;;;8.20;70.96
30744;BME280;17486;46.738;7.622;2023-11-22T01:22:47;95359.06;;;7.96;70.78
30744;BME280;17486;46.738;7.622;2023-11-22T01:25:13;95383.50;;;8.12;71.17
30744;BME280;17486;46.738;7.622;2023-11-22T01:27:38;95386.75;;;8.18;71.04
30744;BME280;17486;46.738;7.622;2023-11-22T01:30:04;95385.88;;;8.17;71.16
30744;BME280;17486;46.738;7.622;2023-11-22T01:32:32;95379.06;;;8.14;71.09
30744;BME280;17486;46.738;7.622;2023-11-22T01:34:58;95370.75;;;8.06;71.14
30744;BME280;17486;46.738;7.622;2023-11-22T01:37:24;95388.66;;;8.12;71.18
30744;BME280;17486;46.738;7.622;2023-11-22T01:39:49;95382.69;;;8.10;71.36
30744;BME280;17486;46.738;7.622;2023-11-22T01:42:14;95392.16;;;8.11;71.08
30744;BME280;17486;46.738;7.622;2023-11-22T01:44:40;95396.44;;;8.12;71.22
30744;BME280;17486;46.738;7.622;2023-11-22T01:47:07;95363.47;;;7.94;71.30
30744;BME280;17486;46.738;7.622;2023-11-22T01:49:34;95383.84;;;8.03;70.89
30744;BME280;17486;46.738;7.622;2023-11-22T01:52:01;95388.88;;;8.06;71.19
30744;BME280;17486;46.738;7.622;2023-11-22T01:54:28;95403.34;;;8.12;70.85
30744;BME280;17486;46.738;7.622;2023-11-22T01:56:54;95399.94;;;8.11;71.34
30744;BME280;17486;46.738;7.622;2023-11-22T01:59:21;95399.09;;;8.11;70.89
30744;BME280;17486;46.738;7.622;2023-11-22T02:01:47;95384.66;;;8.04;71.04
30744;BME280;17486;46.738;7.622;2023-11-22T02:04:14;95379.50;;;8.04;70.91
30744;BME280;17486;46.738;7.622;2023-11-22T02:06:40;95398.78;;;8.19;71.18
30744;BME280;17486;46.738;7.622;2023-11-22T02:09:06;95388.41;;;8.19;70.83
30744;BME280;17486;46.738;7.622;2023-11-22T02:11:31;95399.44;;;8.24;70.76
30744;BME280;17486;46.738;7.622;2023-11-22T02:13:57;95394.34;;;8.22;70.77
30744;BME280;17486;46.738;7.622;2023-11-22T02:16:22;95404.47;;;8.28;70.87
30744;BME280;17486;46.738;7.622;2023-11-22T02:18:48;95357.06;;;8.03;70.75
30744;BME280;17486;46.738;7.622;2023-11-22T02:21:16;95385.44;;;8.29;71.15
30744;BME280;17486;46.738;7.622;2023-11-22T02:23:42;95402.25;;;8.41;70.50
30744;BME280;17486;46.738;7.622;2023-11-22T02:26:07;95397.97;;;8.40;70.49
30744;BME280;17486;46.738;7.622;2023-11-22T02:28:33;95405.63;;;8.43;70.32
30744;BME280;17486;46.738;7.622;2023-11-22T02:30:58;95386.94;;;8.35;70.13
30744;BME280;17486;46.738;7.622;2023-11-22T02:33:24;95400.72;;;8.36;70.36
30744;BME280;17486;46.738;7.622;2023-11-22T02:35:50;95381.31;;;8.24;70.14
30744;BME280;17486;46.738;7.622;2023-11-22T02:38:15;95405.56;;;8.46;70.23
30744;BME280;17486;46.738;7.622;2023-11-22T02:40:43;95376.03;;;8.27;70.13
30744;BME280;17486;46.738;7.622;2023-11-22T02:43:08;95383.63;;;8.32;69.88
30744;BME280;17486;46.738;7.622;2023-11-22T02:45:34;95413.31;;;8.46;70.05
30744;BME280;17486;46.738;7.622;2023-11-22T02:48:00;95408.22;;;8.43;69.75
30744;BME280;17486;46.738;7.622;2023-11-22T02:50:29;95412.47;;;8.46;70.13
30744;BME280;17486;46.738;7.622;2023-11-22T02:52:54;95416.69;;;8.49;69.74
30744;BME280;17486;46.738;7.622;2023-11-22T02:55:20;95404.69;;;8.46;69.90
30744;BME280;17486;46.738;7.622;2023-11-22T02:57:45;95410.72;;;8.46;69.76
30744;BME280;17486;46.738;7.622;2023-11-22T03:00:11;95410.53;;;8.51;70.11
30744;BME280;17486;46.738;7.622;2023-11-22T03:02:40;95412.22;;;8.52;69.76
30744;BME280;17486;46.738;7.622;2023-11-22T03:05:10;95391.75;;;8.44;69.30
30744;BME280;17486;46.738;7.622;2023-11-22T03:07:36;95417.25;;;8.57;68.56
30744;BME280;17486;46.738;7.622;2023-11-22T03:10:03;95419.94;;;8.54;68.62
30744;BME280;17486;46.738;7.622;2023-11-22T03:12:28;95414.88;;;8.51;68.65
30744;BME280;17486;46.738;7.622;2023-11-22T03:14:54;95424.47;;;8.49;68.45
30744;BME280;17486;46.738;7.622;2023-11-22T03:17:24;95432.38;;;8.45;68.78
30744;BME280;17486;46.738;7.622;2023-11-22T03:19:49;95433.47;;;8.38;68.51
30744;BME280;17486;46.738;7.622;2023-11-22T03:22:15;95424.97;;;8.35;68.75
30744;BME280;17486;46.738;7.622;2023-11-22T03:24:40;95428.53;;;8.32;68.79
30744;BME280;17486;46.738;7.622;2023-11-22T03:27:05;95396.72;;;8.05;68.73
30744;BME280;17486;46.738;7.622;2023-11-22T03:29:32;95434.94;;;8.22;68.99
30744;BME280;17486;46.738;7.622;2023-11-22T03:31:58;95437.59;;;8.20;68.98
30744;BME280;17486;46.738;7.622;2023-11-22T03:34:24;95436.75;;;8.20;69.19
30744;BME280;17486;46.738;7.622;2023-11-22T03:36:49;95431.06;;;8.10;69.35
30744;BME280;17486;46.738;7.622;2023-11-22T03:39:16;95434.56;;;8.09;69.77
30744;BME280;17486;46.738;7.622;2023-11-22T03:41:41;95441.50;;;8.08;69.47
30744;BME280;17486;46.738;7.622;2023-11-22T03:44:07;95417.66;;;7.99;69.61
30744;BME280;17486;46.738;7.622;2023-11-22T03:46:36;95435.50;;;8.06;69.53
30744;BME280;17486;46.738;7.622;2023-11-22T03:49:06;95436.41;;;8.05;69.38
30744;BME280;17486;46.738;7.622;2023-11-22T03:51:38;95440.81;;;8.03;69.51
30744;BME280;17486;46.738;7.622;2023-11-22T03:54:04;95423.19;;;7.89;69.40
30744;BME280;17486;46.738;7.622;2023-11-22T03:56:30;95425.63;;;7.94;69.58
30744;BME280;17486;46.738;7.622;2023-11-22T03:58:56;95432.38;;;7.98;69.59
30744;BME280;17486;46.738;7.622;2023-11-22T04:01:21;95440.91;;;8.00;69.55
30744;BME280;17486;46.738;7.622;2023-11-22T04:03:47;95437.56;;;7.98;69.61
30744;BME280;17486;46.738;7.622;2023-11-22T04:06:17;95449.59;;;7.99;69.49
30744;BME280;17486;46.738;7.622;2023-11-22T04:08:44;95445.41;;;7.95;69.64
30744;BME280;17486;46.738;7.622;2023-11-22T04:11:14;95438.84;;;7.86;69.69
30744;BME280;17486;46.738;7.622;2023-11-22T04:13:40;95387.25;;;7.56;69.53
30744;BME280;17486;46.738;7.622;2023-11-22T04:16:09;95457.66;;;7.91;69.60
30744;BME280;17486;46.738;7.622;2023-11-22T04:18:38;95443.91;;;7.89;69.66
30744;BME280;17486;46.738;7.622;2023-11-22T04:21:03;95447.63;;;7.82;69.30
30744;BME280;17486;46.738;7.622;2023-11-22T04:23:31;95460.38;;;7.87;69.23
30744;BME280;17486;46.738;7.622;2023-11-22T04:25:57;95460.31;;;7.88;69.52
30744;BME280;17486;46.738;7.622;2023-11-22T04:28:24;95433.25;;;7.73;69.29
30744;BME280;17486;46.738;7.622;2023-11-22T04:30:50;95445.75;;;7.86;69.08
30744;BME280;17486;46.738;7.622;2023-11-22T04:33:16;95457.66;;;7.91;69.07
30744;BME280;17486;46.738;7.622;2023-11-22T04:35:42;95461.00;;;7.93;69.00
30744;BME280;17486;46.738;7.622;2023-11-22T04:38:07;95447.31;;;7.90;68.82
30744;BME280;17486;46.738;7.622;2023-11-22T04:40:33;95460.91;;;7.96;69.06
30744;BME280;17486;46.738;7.622;2023-11-22T04:42:59;95448.91;;;7.94;68.92
30744;BME280;17486;46.738;7.622;2023-11-22T04:45:24;95422.69;;;7.79;68.76
30744;BME280;17486;46.738;7.622;2023-11-22T04:47:50;95432.72;;;7.87;68.88
30744;BME280;17486;46.738;7.622;2023-11-22T04:50:15;95438.66;;;7.91;68.66
30744;BME280;17486;46.738;7.622;2023-11-22T04:52:40;95443.84;;;7.91;69.02
30744;BME280;17486;46.738;7.622;2023-11-22T04:55:06;95455.78;;;7.95;69.65
30744;BME280;17486;46.738;7.622;2023-11-22T04:57:32;95459.91;;;8.01;69.69
30744;BME280;17486;46.738;7.622;2023-11-22T04:59:57;95455.75;;;7.96;69.41
30744;BME280;17486;46.738;7.622;2023-11-22T05:02:22;95465.03;;;8.02;68.90
30744;BME280;17486;46.738;7.622;2023-11-22T05:04:48;95455.69;;;7.98;68.59
30744;BME280;17486;46.738;7.622;2023-11-22T05:07:15;95462.56;;;7.99;68.42
30744;BME280;17486;46.738;7.622;2023-11-22T05:09:41;95479.19;;;7.92;68.17
30744;BME280;17486;46.738;7.622;2023-11-22T05:12:06;95481.09;;;7.87;68.31
30744;BME280;17486;46.738;7.622;2023-11-22T05:14:32;95425.31;;;7.53;68.44
30744;BME280;17486;46.738;7.622;2023-11-22T05:16:57;95479.41;;;7.86;68.17
30744;BME280;17486;46.738;7.622;2023-11-22T05:19:24;95472.53;;;7.85;68.10
30744;BME280;17486;46.738;7.622;2023-11-22T05:21:49;95483.53;;;7.91;68.27
30744;BME280;17486;46.738;7.622;2023-11-22T05:24:14;95495.63;;;7.91;67.98
30744;BME280;17486;46.738;7.622;2023-11-22T05:26:40;95501.66;;;7.91;68.41
30744;BME280;17486;46.738;7.622;2023-11-22T05:29:06;95508.50;;;7.94;67.90
30744;BME280;17486;46.738;7.622;2023-11-22T05:31:31;95469.56;;;7.70;67.90
30744;BME280;17486;46.738;7.622;2023-11-22T05:33:57;95512.91;;;7.90;68.25
30744;BME280;17486;46.738;7.622;2023-11-22T05:36:22;95523.91;;;7.97;68.01
30744;BME280;17486;46.738;7.622;2023-11-22T05:38:47;95519.69;;;7.94;67.97
30744;BME280;17486;46.738;7.622;2023-11-22T05:41:13;95527.38;;;7.96;67.32
30744;BME280;17486;46.738;7.622;2023-11-22T05:43:38;95540.28;;;7.97;67.40
30744;BME280;17486;46.738;7.622;2023-11-22T05:46:04;95517.34;;;7.87;67.31
30744;BME280;17486;46.738;7.622;2023-11-22T05:48:30;95520.25;;;7.77;67.25
30744;BME280;17486;46.738;7.622;2023-11-22T05:50:55;95545.56;;;7.94;67.05
30744;BME280;17486;46.738;7.622;2023-11-22T05:53:21;95546.53;;;7.92;67.07
30744;BME280;17486;46.738;7.622;2023-11-22T05:55:49;95520.38;;;7.74;66.70
30744;BME280;17486;46.738;7.622;2023-11-22T05:58:15;95558.53;;;7.94;67.03
30744;BME280;17486;46.738;7.622;2023-11-22T06:00:47;95519.56;;;7.72;66.86
30744;BME280;17486;46.738;7.622;2023-11-22T06:03:13;95563.75;;;7.93;66.54
30744;BME280;17486;46.738;7.622;2023-11-22T06:05:39;95565.47;;;7.94;67.02
30744;BME280;17486;46.738;7.622;2023-11-22T06:08:05;95557.63;;;7.95;66.79
30744;BME280;17486;46.738;7.622;2023-11-22T06:10:30;95550.81;;;7.93;66.76
30744;BME280;17486;46.738;7.622;2023-11-22T06:12:56;95560.16;;;7.97;66.96
30744;BME280;17486;46.738;7.622;2023-11-22T06:15:21;95564.47;;;7.98;66.83
30744;BME280;17486;46.738;7.622;2023-11-22T06:17:48;95561.00;;;7.97;66.78
30744;BME280;17486;46.738;7.622;2023-11-22T06:20:14;95504.34;;;7.63;66.98
30744;BME280;17486;46.738;7.622;2023-11-22T06:22:40;95558.41;;;7.97;66.90
30744;BME280;17486;46.738;7.622;2023-11-22T06:25:11;95534.84;;;7.80;66.70
30744;BME280;17486;46.738;7.622;2023-11-22T06:27:37;95555.31;;;7.88;66.55
30744;BME280;17486;46.738;7.622;2023-11-22T06:30:03;95551.81;;;7.89;66.06
30744;BME280;17486;46.738;7.622;2023-11-22T06:32:28;95569.53;;;8.01;66.40
30744;BME280;17486;46.738;7.622;2023-11-22T06:34:54;95561.94;;;7.95;66.07
30744;BME280;17486;46.738;7.622;2023-11-22T06:37:19;95572.16;;;8.00;66.49
30744;BME280;17486;46.738;7.622;2023-11-22T06:39:46;95564.41;;;8.00;66.57
30744;BME280;17486;46.738;7.622;2023-11-22T06:42:11;95538.19;;;7.84;66.42
30744;BME280;17486;46.738;7.622;2023-11-22T06:44:38;95557.63;;;7.95;66.32
30744;BME280;17486;46.738;7.622;2023-11-22T06:47:05;95555.94;;;7.94;66.51
30744;BME280;17486;46.738;7.622;2023-11-22T06:49:31;95516.19;;;7.70;66.92
30744;BME280;17486;46.738;7.622;2023-11-22T06:51:57;95553.56;;;7.88;66.61
30744;BME280;17486;46.738;7.622;2023-11-22T06:54:22;95560.38;;;7.91;66.66
30744;BME280;17486;46.738;7.622;2023-11-22T06:56:47;95541.91;;;7.75;66.68
30744;BME280;17486;46.738;7.622;2023-11-22T06:59:13;95556.19;;;7.87;66.72
30744;BME280;17486;46.738;7.622;2023-11-22T07:01:39;95567.75;;;7.76;66.56
30744;BME280;17486;46.738;7.622;2023-11-22T07:04:05;95573.81;;;7.75;66.66
30744;BME280;17486;46.738;7.622;2023-11-22T07:06:32;95585.19;;;7.71;67.03
30744;BME280;17486;46.738;7.622;2023-11-22T07:08:57;95596.34;;;7.73;67.08
30744;BME280;17486;46.738;7.622;2023-11-22T07:11:24;95614.34;;;7.76;67.06
30744;BME280;17486;46.738;7.622;2023-11-22T07:13:50;95610.88;;;7.77;67.06
30744;BME280;17486;46.738;7.622;2023-11-22T07:16:17;95616.94;;;7.76;67.02
30744;BME280;17486;46.738;7.622;2023-11-22T07:18:43;95617.53;;;7.85;66.90
30744;BME280;17486;46.738;7.622;2023-11-22T07:21:10;95593.84;;;7.70;66.79
30744;BME280;17486;46.738;7.622;2023-11-22T07:23:37;95586.59;;;7.55;67.01
30744;BME280;17486;46.738;7.622;2023-11-22T07:26:03;95611.06;;;7.71;66.89
30744;BME280;17486;46.738;7.622;2023-11-22T07:28:28;95611.63;;;7.81;66.44
30744;BME280;17486;46.738;7.622;2023-11-22T07:30:54;95632.81;;;7.92;66.74
30744;BME280;17486;46.738;7.622;2023-11-22T07:33:19;95632.69;;;7.97;66.40
30744;BME280;17486;46.738;7.622;2023-11-22T07:35:46;95644.63;;;8.01;66.27
30744;BME280;17486;46.738;7.622;2023-11-22T07:38:11;95648.75;;;8.07;66.42
30744;BME280;17486;46.738;7.622;2023-11-22T07:40:37;95661.75;;;8.05;66.20
30744;BME280;17486;46.738;7.622;2023-11-22T07:43:02;95642.22;;;7.96;66.59
30744;BME280;17486;46.738;7.622;2023-11-22T07:45:31;95663.47;;;8.06;66.59
30744;BME280;17486;46.738;7.622;2023-11-22T07:47:57;95661.69;;;8.08;66.81
30744;BME280;17486;46.738;7.622;2023-11-22T07:50:25;95663.28;;;8.12;66.69
30744;BME280;17486;46.738;7.622;2023-11-22T07:52:50;95657.09;;;8.17;66.64
30744;BME280;17486;46.738;7.622;2023-11-22T07:55:16;95640.97;;;8.08;66.03
30744;BME280;17486;46.738;7.622;2023-11-22T07:57:47;95663.78;;;8.22;66.23
30744;BME280;17486;46.738;7.622;2023-11-22T08:00:13;95626.31;;;8.07;66.34
30744;BME280;17486;46.738;7.622;2023-11-22T08:02:38;95665.22;;;8.31;65.74
30744;BME280;17486;46.738;7.622;2023-11-22T08:05:05;95667.66;;;8.36;65.67
30744;BME280;17486;46.738;7.622;2023-11-22T08:07:35;95670.09;;;8.40;65.18
30744;BME280;17486;46.738;7.622;2023-11-22T08:10:00;95689.66;;;8.51;65.06
30744;BME280;17486;46.738;7.622;2023-11-22T08:12:37;95674.22;;;8.48;64.33
30744;BME280;17486;46.738;7.622;2023-11-22T08:15:03;95676.75;;;8.49;64.57
30744;BME280;17486;46.738;7.622;2023-11-22T08:17:29;95675.81;;;8.52;64.74
30744;BME280;17486;46.738;7.622;2023-11-22T08:19:57;95667.22;;;8.50;64.85
30744;BME280;17486;46.738;7.622;2023-11-22T08:22:24;95629.16;;;8.25;64.47
30744;BME280;17486;46.738;7.622;2023-11-22T08:24:51;95659.63;;;8.43;64.91
30744;BME280;17486;46.738;7.622;2023-11-22T08:27:16;95693.72;;;8.58;64.52
30744;BME280;17486;46.738;7.622;2023-11-22T08:29:43;95695.34;;;8.62;64.70
30744;BME280;17486;46.738;7.622;2023-11-22T08:32:11;95705.59;;;8.65;64.09
30744;BME280;17486;46.738;7.622;2023-11-22T08:34:36;95669.22;;;8.41;64.34
30744;BME280;17486;46.738;7.622;2023-11-22T08:37:02;95716.06;;;8.62;64.17
30744;BME280;17486;46.738;7.622;2023-11-22T08:39:27;95684.38;;;8.27;64.56
30744;BME280;17486;46.738;7.622;2023-11-22T08:41:53;95723.47;;;8.48;64.68
30744;BME280;17486;46.738;7.622;2023-11-22T08:44:18;95744.16;;;8.49;65.11
30744;BME280;17486;46.738;7.622;2023-11-22T08:46:44;95728.81;;;8.41;64.85
30744;BME280;17486;46.738;7.622;2023-11-22T08:49:12;95726.31;;;8.38;65.13
30744;BME280;17486;46.738;7.622;2023-11-22T08:51:37;95701.75;;;8.23;64.94
30744;BME280;17486;46.738;7.622;2023-11-22T08:54:03;95722.00;;;8.39;65.17
30744;BME280;17486;46.738;7.622;2023-11-22T08:56:29;95714.31;;;8.36;65.29
30744;BME280;17486;46.738;7.622;2023-11-22T08:58:54;95719.53;;;8.34;65.30
30744;BME280;17486;46.738;7.622;2023-11-22T09:01:20;95688.00;;;8.21;65.17
30744;BME280;17486;46.738;7.622;2023-11-22T09:03:45;95675.59;;;8.04;65.37
30744;BME280;17486;46.738;7.622;2023-11-22T09:06:11;95732.38;;;8.39;65.54
30744;BME280;17486;46.738;7.622;2023-11-22T09:08:36;95733.19;;;8.39;65.20
30744;BME280;17486;46.738;7.622;2023-11-22T09:11:02;95722.19;;;8.33;65.37
30744;BME280;17486;46.738;7.622;2023-11-22T09:13:31;95708.66;;;8.24;65.65
30744;BME280;17486;46.738;7.622;2023-11-22T09:15:56;95708.72;;;8.23;65.10
30744;BME280;17486;46.738;7.622;2023-11-22T09:18:22;95697.59;;;8.19;65.32
30744;BME280;17486;46.738;7.622;2023-11-22T09:20:47;95738.25;;;8.44;65.33
30744;BME280;17486;46.738;7.622;2023-11-22T09:23:13;95742.28;;;8.53;66.23
30744;BME280;17486;46.738;7.622;2023-11-22T09:25:40;95744.41;;;8.67;66.14
30744;BME280;17486;46.738;7.622;2023-11-22T09:28:05;95739.78;;;8.76;65.96
30744;BME280;17486;46.738;7.622;2023-11-22T09:30:32;95724.88;;;8.82;65.85
30744;BME280;17486;46.738;7.622;2023-11-22T09:33:07;95719.88;;;8.77;65.40
30744;BME280;17486;46.738;7.622;2023-11-22T09:35:34;95739.84;;;8.99;64.40
30744;BME280;17486;46.738;7.622;2023-11-22T09:38:07;95742.41;;;9.00;64.70
30744;BME280;17486;46.738;7.622;2023-11-22T09:40:42;95736.31;;;9.01;64.37
30744;BME280;17486;46.738;7.622;2023-11-22T09:43:09;95721.66;;;9.00;63.26
30744;BME280;17486;46.738;7.622;2023-11-22T09:45:35;95728.72;;;9.20;64.04
30744;BME280;17486;46.738;7.622;2023-11-22T09:48:07;95717.94;;;9.31;63.90
30744;BME280;17486;46.738;7.622;2023-11-22T09:50:47;95740.59;;;9.50;63.47
30744;BME280;17486;46.738;7.622;2023-11-22T09:53:21;95739.06;;;9.68;62.91
30744;BME280;17486;46.738;7.622;2023-11-22T09:55:48;95731.13;;;9.72;61.90
30744;BME280;17486;46.738;7.622;2023-11-22T09:58:14;95739.31;;;9.84;60.66
30744;BME280;17486;46.738;7.622;2023-11-22T10:00:41;95741.69;;;9.90;60.73
30744;BME280;17486;46.738;7.622;2023-11-22T10:03:07;95708.13;;;9.85;60.15
30744;BME280;17486;46.738;7.622;2023-11-22T10:05:34;95736.06;;;10.01;59.54
30744;BME280;17486;46.738;7.622;2023-11-22T10:08:00;95726.25;;;10.09;60.35
30744;BME280;17486;46.738;7.622;2023-11-22T10:10:26;95719.88;;;10.16;59.64
30744;BME280;17486;46.738;7.622;2023-11-22T10:12:55;95714.50;;;10.21;59.30
30744;BME280;17486;46.738;7.622;2023-11-22T10:15:27;95680.00;;;9.95;58.61
30744;BME280;17486;46.738;7.622;2023-11-22T10:17:59;95711.31;;;10.14;58.22
30744;BME280;17486;46.738;7.622;2023-11-22T10:20:41;95707.31;;;10.05;57.80
30744;BME280;17486;46.738;7.622;2023-11-22T10:23:10;95708.34;;;10.01;58.14
30744;BME280;17486;46.738;7.622;2023-11-22T10:25:37;95681.41;;;9.82;58.14
30744;BME280;17486;46.738;7.622;2023-11-22T10:28:08;95696.63;;;9.91;58.50
30744;BME280;17486;46.738;7.622;2023-11-22T10:30:34;95704.22;;;9.95;58.67
30744;BME280;17486;46.738;7.622;2023-11-22T10:33:02;95692.47;;;9.87;58.90
30744;BME280;17486;46.738;7.622;2023-11-22T10:35:27;95695.59;;;9.95;59.21
30744;BME280;17486;46.738;7.622;2023-11-22T10:37:53;95682.31;;;9.81;60.33
30744;BME280;17486;46.738;7.622;2023-11-22T10:40:18;95697.81;;;9.82;60.60
30744;BME280;17486;46.738;7.622;2023-11-22T10:42:46;95697.66;;;9.87;60.58
30744;BME280;17486;46.738;7.622;2023-11-22T10:45:15;95660.25;;;9.69;60.65
30744;BME280;17486;46.738;7.622;2023-11-22T10:47:42;95702.59;;;9.93;61.30
30744;BME280;17486;46.738;7.622;2023-11-22T10:50:08;95700.66;;;9.98;61.09
30744;BME280;17486;46.738;7.622;2023-11-22T10:52:35;95710.03;;;10.02;60.92
30744;BME280;17486;46.738;7.622;2023-11-22T10:55:03;95712.56;;;10.04;61.27
30744;BME280;17486;46.738;7.622;2023-11-22T10:57:31;95668.88;;;9.91;65.03
30744;BME280;17486;46.738;7.622;2023-11-22T11:00:00;95682.13;;;10.07;64.89
30744;BME280;17486;46.738;7.622;2023-11-22T11:02:32;95734.56;;;10.39;65.69
30744;BME280;17486;46.738;7.622;2023-11-22T11:05:10;95714.59;;;10.40;64.08
30744;BME280;17486;46.738;7.622;2023-11-22T11:07:44;95700.47;;;10.47;63.05
30744;BME280;17486;46.738;7.622;2023-11-22T11:10:13;95682.44;;;10.42;61.76
30744;BME280;17486;46.738;7.622;2023-11-22T11:12:39;95683.09;;;10.48;61.57
30744;BME280;17486;46.738;7.622;2023-11-22T11:15:05;95708.13;;;10.71;60.27
30744;BME280;17486;46.738;7.622;2023-11-22T11:17:33;95699.78;;;10.83;59.10
30744;BME280;17486;46.738;7.622;2023-11-22T11:19:59;95704.00;;;10.86;58.85
30744;BME280;17486;46.738;7.622;2023-11-22T11:22:24;95707.25;;;10.91;57.92
30744;BME280;17486;46.738;7.622;2023-11-22T11:25:00;95685.94;;;10.83;58.00
30744;BME280;17486;46.738;7.622;2023-11-22T11:27:28;95714.53;;;11.03;57.15
30744;BME280;17486;46.738;7.622;2023-11-22T11:29:54;95715.44;;;11.02;56.82
30744;BME280;17486;46.738;7.622;2023-11-22T11:32:30;95708.81;;;10.95;56.47
30744;BME280;17486;46.738;7.622;2023-11-22T11:35:00;95711.78;;;11.06;56.54
30744;BME280;17486;46.738;7.622;2023-11-22T11:37:29;95716.75;;;11.13;55.67
30744;BME280;17486;46.738;7.622;2023-11-22T11:39:55;95705.28;;;11.17;55.87
30744;BME280;17486;46.738;7.622;2023-11-22T11:42:21;95708.78;;;11.16;56.10
30744;BME280;17486;46.738;7.622;2023-11-22T11:44:51;95699.63;;;11.07;55.62
30744;BME280;17486;46.738;7.622;2023-11-22T11:47:27;95704.91;;;11.05;55.43
30744;BME280;17486;46.738;7.622;2023-11-22T11:49:54;95718.56;;;10.90;54.86
30744;BME280;17486;46.738;7.622;2023-11-22T11:52:20;95718.31;;;10.75;55.65
30744;BME280;17486;46.738;7.622;2023-11-22T11:54:45;95729.00;;;10.49;55.84
30744;BME280;17486;46.738;7.622;2023-11-22T11:57:12;95731.97;;;10.39;56.46
30744;BME280;17486;46.738;7.622;2023-11-22T11:59:37;95731.66;;;10.25;57.30
30744;BME280;17486;46.738;7.622;2023-11-22T12:02:03;95731.16;;;10.15;56.86
30744;BME280;17486;46.738;7.622;2023-11-22T12:04:33;95731.91;;;9.96;56.93
30744;BME280;17486;46.738;7.622;2023-11-22T12:06:58;95731.97;;;9.95;57.21
30744;BME280;17486;46.738;7.622;2023-11-22T12:09:25;95736.38;;;9.93;57.96
30744;BME280;17486;46.738;7.622;2023-11-22T12:11:51;95741.09;;;9.83;57.83
30744;BME280;17486;46.738;7.622;2023-11-22T12:14:19;95744.53;;;9.84;58.74
30744;BME280;17486;46.738;7.622;2023-11-22T12:16:44;95737.69;;;9.81;57.81
30744;BME280;17486;46.738;7.622;2023-11-22T12:19:21;95732.25;;;9.87;58.25
30744;BME280;17486;46.738;7.622;2023-11-22T12:21:48;95715.41;;;9.75;58.55
30744;BME280;17486;46.738;7.622;2023-11-22T12:24:14;95730.69;;;9.83;58.08
30744;BME280;17486;46.738;7.622;2023-11-22T12:26:44;95721.13;;;9.84;58.80
30744;BME280;17486;46.738;7.622;2023-11-22T12:29:12;95713.34;;;9.84;58.23
30744;BME280;17486;46.738;7.622;2023-11-22T12:31:44;95710.75;;;9.84;58.50
30744;BME280;17486;46.738;7.622;2023-11-22T12:34:12;95720.00;;;9.91;57.92
30744;BME280;17486;46.738;7.622;2023-11-22T12:36:37;95716.31;;;9.96;58.60
30744;BME280;17486;46.738;7.622;2023-11-22T12:39:07;95709.56;;;9.92;58.62
30744;BME280;17486;46.738;7.622;2023-11-22T12:41:33;95680.91;;;9.72;58.12
30744;BME280;17486;46.738;7.622;2023-11-22T12:44:03;95649.03;;;9.46;58.56
30744;BME280;17486;46.738;7.622;2023-11-22T12:46:47;95659.16;;;9.52;58.23
30744;BME280;17486;46.738;7.622;2023-11-22T12:49:24;95672.34;;;9.48;57.99
30744;BME280;17486;46.738;7.622;2023-11-22T12:51:50;95716.06;;;9.58;59.06
30744;BME280;17486;46.738;7.622;2023-11-22T12:54:16;95705.06;;;9.52;59.09
30744;BME280;17486;46.738;7.622;2023-11-22T12:56:42;95731.47;;;9.63;59.13
30744;BME280;17486;46.738;7.622;2023-11-22T12:59:08;95744.47;;;9.63;58.66
30744;BME280;17486;46.738;7.622;2023-11-22T13:01:34;95741.25;;;9.56;58.52
30744;BME280;17486;46.738;7.622;2023-11-22T13:04:00;95731.97;;;9.49;58.89
30744;BME280;17486;46.738;7.622;2023-11-22T13:06:26;95734.75;;;9.44;58.86